Aktuální počasí v Česku a ve světě - METAR

Seznam meteostanic umístěných nejčasteji na letišti v ČR a ve světě

Vyhledat místa podle abecedy:
A B C D E F G H I J K L M N O P Q R S T U V W X Y Z

Filtrovat:

ID stanice:
a/nebo
Název místa (fulltext):
 
Místo (ID)Naposledy načteno 
Iasi (LRIA) 18.06.2021 09:00 UTC Zobrazit METAR
LRIA 180900Z 01010KT 9999 SCT027 BKN035 23/18 Q1016 R14/CLRD//
Ibiza (LEIB) 18.06.2021 09:00 UTC Zobrazit METAR
LEIB 180900Z 08003KT 020V140 9999 FEW012 26/20 Q1013 NOSIG
Innsbruck (LOWI) 18.06.2021 08:50 UTC Zobrazit METAR
LOWI 180850Z 27006KT 9999 SCT070 27/16 Q1016 NOSIG
Iraklion (LGIR) 18.06.2021 08:50 UTC Zobrazit METAR
LGIR 180850Z 35005KT 9999 FEW025 24/20 Q1016 NOSIG
Isafjordur (BIIS) 18.06.2021 09:00 UTC Zobrazit METAR
BIIS 180900Z 04005KT 9999 FEW022 BKN060 07/01 Q1010
Isla de Pascua (SCIP) 18.06.2021 09:00 UTC Zobrazit METAR
SCIP 180900Z 15014KT 9999 -SHRA SCT030 BKN040 17/12 Q1023 NOSIG
Islamabad (OPRN) 28.12.2019 11:00 UTC Zobrazit METAR
OPRN 281100Z 05004KT 1400 BR SCT100 11/08 Q1016 BECMG 1500 BR
Istanbul (LTBA) 18.06.2021 07:50 UTC Zobrazit METAR
LTBA 180750Z 24008KT 9999 SCT033 22/18 Q1015 NOSIG
Ivano-Frankivs'k (UKLI) Zatím nenačteno  
Reklama

Reklama


Newslettter

Počasí na Váš email

Emaily jsou bez reklamy a bez spamu



Odhlásit newsletter



Kontaktujte nás

Kontaktujte Slunečno.cz

Kontaktujte provozovatele Slunecno.cz

Další české internetové stránky (nejen) o počasí najdete v katalogu TOPlist - weby o počasí nebo vyhledejte na internetu, co jste tu na Počasí Slunečno Slunečnu zatím nenašli:
Přidat mezzi oblíbené stránkyPřidat Slunečno.cz do oblíbených | Nastavit jako HOMEPAGENastavit Slunečno.cz jako HOMEPAGE

Posunout stránku nahoru Posunout stránku nahoru Posunout stránku nahoru
Reklama